Harkema, Netherlands
Current Conditions -  °F | °C
As of 9:25 PM on Friday 21 Nov 2014 (Local Time) from EHLW Reporting Station
Overcast Overcast  
Wind Chill: 35°   Ceiling: 12000
Heat Index: 41°   Visibility: 6mi
Dew Point: 37°   Wind: 10mph
Humidity: 87%   Direction: 110°ESE
Pressure: 30.15"   Gusts: NA
Location:  53.18°N, 6.13°E
Report Text: EHLW 212025Z AUTO 11009KT 9999 OVC120 05/03 Q1021 BLU
Loading
Personal Weather Stations






























Interactive Weather Map New forecast layout! Learn more

10-Day Weather Forecast

Advertisements
Track Severe Weather on mobile